Time;durP1;ratioP1;P1;durP2;ratioP2;P2;SDS_P1;SDS_P2;PMS_P1;PMS_P2;Temp;Humidity;BMP_temperature;BMP_pressure;BME280_temperature;BME280_humidity;BME280_pressure;Samples;Min_cycle;Max_cycle;Signal;HPM_P1;HPM_P2
2024/03/02 00:01:53;;;;;;;;;;;;;;;7.25;68.03;101418.65;107579;1251;97771;-64
2024/03/02 00:04:21;;;;;;;;;;;;;;;7.24;67.81;101419.98;107485;1251;110766;-64
2024/03/02 00:06:52;;;;;;;;;;;;;;;7.23;67.51;101419.65;107528;1251;108000;-65
2024/03/02 00:09:20;;;;;;;;;;;;;;;7.25;67.25;101425.06;107543;1251;108253;-65
2024/03/02 00:11:49;;;;;;;;;;;;;;;7.27;66.96;101426.58;107606;1254;97860;-64
2024/03/02 00:14:17;;;;;;;;;;;;;;;7.27;66.69;101424.04;107476;1254;97736;-64
2024/03/02 00:16:45;;;;;;;;;;;;;;;7.22;66.44;101418.84;107647;1254;112102;-63
2024/03/02 00:19:14;;;;;;;;;;;;;;;7.15;66.28;101421.41;107658;1253;107497;-65
2024/03/02 00:21:42;;;;;;;;;;;;;;;7.06;66.27;101427.48;107630;1254;108444;-63
2024/03/02 00:24:19;;;;;;;;;;;;;;;6.99;66.38;101430.81;107559;1253;97803;-62
2024/03/02 00:26:48;;;;;;;;;;;;;;;6.94;66.44;101430.80;107660;1253;98652;-64
2024/03/02 00:29:19;;;;;;;;;;;;;;;6.91;66.59;101429.01;107641;1252;111106;-63
2024/03/02 00:31:48;;;;;;;;;;;;;;;6.91;66.43;101427.02;107709;1251;107994;-63
2024/03/02 00:34:17;;;;;;;;;;;;;;;6.94;66.46;101423.65;107491;1251;108604;-63
2024/03/02 00:36:46;;;;;;;;;;;;;;;6.96;66.50;101423.14;107528;1251;97821;-64
2024/03/02 00:39:17;;;;;;;;;;;;;;;7.00;66.29;101416.15;107535;1250;97830;-63
2024/03/02 00:41:46;;;;;;;;;;;;;;;6.98;65.90;101410.90;107600;1254;111002;-64
2024/03/02 00:44:15;;;;;;;;;;;;;;;6.96;65.89;101406.08;107614;1254;108508;-64
2024/03/02 00:46:44;;;;;;;;;;;;;;;6.91;65.86;101401.55;107673;1254;108307;-63
2024/03/02 00:49:12;;;;;;;;;;;;;;;6.82;65.96;101392.81;107596;1255;97986;-62
2024/03/02 00:51:41;;;;;;;;;;;;;;;6.70;66.33;101381.61;107604;1254;98972;-64
2024/03/02 00:54:10;;;;;;;;;;;;;;;6.62;66.55;101376.24;107667;1254;112196;-63
2024/03/02 00:56:41;;;;;;;;;;;;;;;6.55;66.44;101371.67;107636;1254;107295;-64
2024/03/02 00:59:10;;;;;;;;;;;;;;;6.48;66.77;101371.91;107592;1253;107866;-63
2024/03/02 01:01:38;;;;;;;;;;;;;;;6.43;66.66;101366.35;107618;1254;97896;-64
2024/03/02 01:04:06;;;;;;;;;;;;;;;6.37;67.21;101360.49;107668;1253;97835;-64
2024/03/02 01:06:37;;;;;;;;;;;;;;;6.34;67.42;101358.00;107629;1251;112316;-63
2024/03/02 01:09:06;;;;;;;;;;;;;;;6.37;67.48;101356.75;107502;1254;108800;-64
2024/03/02 01:11:34;;;;;;;;;;;;;;;6.44;67.32;101360.95;107525;1254;108335;-66
2024/03/02 01:14:02;;;;;;;;;;;;;;;6.50;67.04;101360.23;107611;1254;97851;-64
2024/03/02 01:16:31;;;;;;;;;;;;;;;6.53;67.05;101358.60;107561;1254;97835;-63
2024/03/02 01:18:59;;;;;;;;;;;;;;;6.56;66.75;101350.37;107627;1254;111566;-64
2024/03/02 01:21:27;;;;;;;;;;;;;;;6.55;66.55;101347.05;107616;1254;108810;-62
2024/03/02 01:23:56;;;;;;;;;;;;;;;6.48;66.68;101346.08;107627;1253;108532;-62
2024/03/02 01:26:24;;;;;;;;;;;;;;;6.43;66.68;101343.55;107604;1254;97912;-63
2024/03/02 01:28:52;;;;;;;;;;;;;;;6.38;66.57;101339.77;107647;1253;97902;-63
2024/03/02 01:31:21;;;;;;;;;;;;;;;6.36;66.60;101330.10;107632;1254;111714;-63
2024/03/02 01:33:49;;;;;;;;;;;;;;;6.29;67.01;101330.17;107692;1253;107901;-64
2024/03/02 01:36:18;;;;;;;;;;;;;;;6.23;67.23;101332.45;107599;1255;107853;-63
2024/03/02 01:38:46;;;;;;;;;;;;;;;6.23;67.41;101328.52;107601;1253;97740;-63
2024/03/02 01:41:14;;;;;;;;;;;;;;;6.27;67.51;101331.71;107620;1254;97901;-63
2024/03/02 01:43:43;;;;;;;;;;;;;;;6.33;67.65;101335.60;107582;1254;112049;-64
2024/03/02 01:46:11;;;;;;;;;;;;;;;6.37;67.48;101334.46;107637;1254;107570;-63
2024/03/02 01:48:39;;;;;;;;;;;;;;;6.40;67.48;101333.23;107594;1254;107458;-62
2024/03/02 01:51:08;;;;;;;;;;;;;;;6.44;67.53;101329.26;107531;1252;97834;-63
2024/03/02 01:53:36;;;;;;;;;;;;;;;6.47;67.35;101327.46;107658;1253;97812;-63
2024/03/02 01:56:04;;;;;;;;;;;;;;;6.48;67.26;101319.69;107620;1253;111204;-63
2024/03/02 01:58:33;;;;;;;;;;;;;;;6.47;67.18;101322.11;107690;1254;107812;-63
2024/03/02 02:01:01;;;;;;;;;;;;;;;6.43;67.11;101323.79;107569;1253;106934;-66
2024/03/02 02:03:29;;;;;;;;;;;;;;;6.40;67.29;101322.72;107614;1254;97823;-66
2024/03/02 02:05:58;;;;;;;;;;;;;;;6.41;67.25;101326.39;107460;1251;97859;-67
2024/03/02 02:08:27;;;;;;;;;;;;;;;6.41;67.03;101320.83;107550;1251;110985;-62
2024/03/02 02:10:55;;;;;;;;;;;;;;;6.43;67.12;101315.41;107578;1251;108776;-64
2024/03/02 02:13:24;;;;;;;;;;;;;;;6.47;67.34;101315.16;107514;1251;107589;-64
2024/03/02 02:15:52;;;;;;;;;;;;;;;6.50;67.44;101314.59;107569;1251;97873;-64
2024/03/02 02:18:21;;;;;;;;;;;;;;;6.50;67.23;101319.45;107537;1251;97701;-63
2024/03/02 02:20:49;;;;;;;;;;;;;;;6.48;67.07;101322.23;107525;1253;112972;-66
2024/03/02 02:23:18;;;;;;;;;;;;;;;6.50;67.19;101322.61;107568;1252;108264;-63
2024/03/02 02:25:46;;;;;;;;;;;;;;;6.51;67.15;101319.71;107576;1254;108561;-63
2024/03/02 02:28:15;;;;;;;;;;;;;;;6.49;67.14;101321.24;107585;1253;98554;-63
2024/03/02 02:30:43;;;;;;;;;;;;;;;6.49;67.12;101316.42;107600;1251;97729;-65
2024/03/02 02:33:12;;;;;;;;;;;;;;;6.50;67.09;101313.52;107547;1251;112356;-62
2024/03/02 02:35:40;;;;;;;;;;;;;;;6.54;67.18;101314.36;107511;1254;107145;-64
2024/03/02 02:38:08;;;;;;;;;;;;;;;6.55;66.86;101311.60;107562;1254;108005;-64
2024/03/02 02:40:36;;;;;;;;;;;;;;;6.55;66.85;101306.77;107600;1252;97857;-64
2024/03/02 02:43:06;;;;;;;;;;;;;;;6.57;66.74;101309.86;107509;1252;97864;-65
2024/03/02 02:45:35;;;;;;;;;;;;;;;6.53;66.45;101308.16;107597;1255;111718;-64
2024/03/02 02:48:05;;;;;;;;;;;;;;;6.49;66.40;101303.77;107612;1254;108470;-64
2024/03/02 02:50:33;;;;;;;;;;;;;;;6.46;66.28;101303.42;107585;1254;107690;-63
2024/03/02 02:53:02;;;;;;;;;;;;;;;6.42;66.27;101299.06;107585;1251;97924;-64
2024/03/02 02:55:30;;;;;;;;;;;;;;;6.39;66.11;101302.06;107575;1254;97735;-63
2024/03/02 02:57:58;;;;;;;;;;;;;;;6.37;66.28;101308.25;107619;1251;111295;-64
2024/03/02 03:00:27;;;;;;;;;;;;;;;6.35;66.28;101302.50;107600;1254;108677;-65
2024/03/02 03:02:55;;;;;;;;;;;;;;;6.32;66.19;101306.10;107613;1251;108488;-66
2024/03/02 03:05:23;;;;;;;;;;;;;;;6.29;66.17;101301.80;107599;1253;97954;-64
2024/03/02 03:07:52;;;;;;;;;;;;;;;6.27;66.39;101299.66;107604;1254;97829;-64
2024/03/02 03:10:23;;;;;;;;;;;;;;;6.22;66.31;101301.18;107587;1251;111838;-64
2024/03/02 03:12:51;;;;;;;;;;;;;;;6.22;66.58;101301.03;107649;1255;107251;-64
2024/03/02 03:15:19;;;;;;;;;;;;;;;6.22;66.35;101299.59;107661;1254;106810;-64
2024/03/02 03:17:48;;;;;;;;;;;;;;;6.22;66.55;101305.29;107575;1253;97829;-65
2024/03/02 03:20:17;;;;;;;;;;;;;;;6.21;66.64;101304.08;107589;1251;97729;-65
2024/03/02 03:22:45;;;;;;;;;;;;;;;6.19;66.68;101302.42;107583;1251;110899;-64
2024/03/02 03:25:13;;;;;;;;;;;;;;;6.16;66.64;101302.60;107608;1251;108319;-65
2024/03/02 03:27:41;;;;;;;;;;;;;;;6.17;66.74;101301.01;107620;1253;107388;-64
2024/03/02 03:30:10;;;;;;;;;;;;;;;6.16;66.82;101296.02;107484;1254;97831;-63
2024/03/02 03:32:39;;;;;;;;;;;;;;;6.16;66.82;101292.63;107666;1254;97838;-63
2024/03/02 03:35:07;;;;;;;;;;;;;;;6.17;66.69;101294.36;107500;1251;111235;-64
2024/03/02 03:37:36;;;;;;;;;;;;;;;6.15;66.80;101286.99;107542;1251;108697;-64
2024/03/02 03:40:09;;;;;;;;;;;;;;;6.15;66.71;101285.91;107503;1251;108759;-64
2024/03/02 03:42:39;;;;;;;;;;;;;;;6.14;66.76;101279.61;107536;1251;97882;-63
2024/03/02 03:45:08;;;;;;;;;;;;;;;6.12;66.94;101278.13;107566;1251;97978;-64
2024/03/02 03:47:36;;;;;;;;;;;;;;;6.09;66.93;101277.55;107482;1252;111281;-64
2024/03/02 03:50:06;;;;;;;;;;;;;;;6.06;67.22;101273.13;107601;1251;108045;-66
2024/03/02 03:52:34;;;;;;;;;;;;;;;6.01;67.67;101273.27;107630;1252;108338;-64
2024/03/02 03:55:03;;;;;;;;;;;;;;;5.96;67.51;101271.57;107561;1253;97765;-65
2024/03/02 03:57:31;;;;;;;;;;;;;;;5.95;67.52;101267.19;107586;1251;97716;-64
2024/03/02 04:00:00;;;;;;;;;;;;;;;5.94;67.38;101270.24;107529;1250;111790;-66
2024/03/02 04:02:39;;;;;;;;;;;;;;;5.95;67.45;101267.91;107574;1254;107676;-66
2024/03/02 04:05:08;;;;;;;;;;;;;;;5.95;67.36;101268.59;107560;1253;108345;-64
2024/03/02 04:07:40;;;;;;;;;;;;;;;5.96;67.45;101269.46;107559;1252;97840;-64
2024/03/02 04:10:10;;;;;;;;;;;;;;;5.96;67.52;101265.13;107614;1254;97821;-62
2024/03/02 04:12:39;;;;;;;;;;;;;;;5.96;67.71;101267.30;107589;1255;112481;-65
2024/03/02 04:15:08;;;;;;;;;;;;;;;5.92;67.80;101269.48;107571;1254;108070;-64
2024/03/02 04:17:36;;;;;;;;;;;;;;;5.86;67.71;101263.61;107614;1254;108147;-64
2024/03/02 04:20:05;;;;;;;;;;;;;;;5.80;67.92;101263.60;107584;1251;97950;-65
2024/03/02 04:22:35;;;;;;;;;;;;;;;5.78;68.18;101263.20;107650;1251;97727;-64
2024/03/02 04:25:04;;;;;;;;;;;;;;;5.80;67.96;101264.36;107580;1252;109924;-65
2024/03/02 04:27:36;;;;;;;;;;;;;;;5.83;68.11;101262.06;107634;1253;108794;-64
2024/03/02 04:30:05;;;;;;;;;;;;;;;5.85;67.85;101264.58;107581;1256;107951;-63
2024/03/02 04:32:36;;;;;;;;;;;;;;;5.85;67.58;101262.44;107597;1253;97825;-65
2024/03/02 04:35:05;;;;;;;;;;;;;;;5.84;67.57;101263.96;107560;1253;97707;-65
2024/03/02 04:37:34;;;;;;;;;;;;;;;5.79;67.36;101267.78;107501;1252;111544;-64
2024/03/02 04:40:03;;;;;;;;;;;;;;;5.74;67.32;101262.06;107608;1254;108322;-65
2024/03/02 04:42:31;;;;;;;;;;;;;;;5.68;67.38;101259.05;107578;1254;108764;-64
2024/03/02 04:44:59;;;;;;;;;;;;;;;5.63;67.31;101256.63;107567;1253;97884;-63
2024/03/02 04:47:28;;;;;;;;;;;;;;;5.62;67.30;101256.33;107643;1252;97798;-63
2024/03/02 04:49:56;;;;;;;;;;;;;;;5.64;67.37;101260.49;107604;1255;111366;-63
2024/03/02 04:52:24;;;;;;;;;;;;;;;5.69;67.43;101260.77;107505;1254;108429;-65
2024/03/02 04:57:40;;;;;;;;;;;;;;;5.81;67.20;101269.98;107539;1252;97816;-65
2024/03/02 05:00:09;;;;;;;;;;;;;;;5.84;67.13;101273.73;107657;1253;97851;-64
2024/03/02 05:02:38;;;;;;;;;;;;;;;5.88;67.20;101281.66;107638;1254;111351;-65
2024/03/02 05:05:06;;;;;;;;;;;;;;;5.91;66.89;101280.58;107637;1254;107419;-65
2024/03/02 05:07:34;;;;;;;;;;;;;;;5.93;66.86;101287.95;107572;1255;107890;-63
2024/03/02 05:10:03;;;;;;;;;;;;;;;5.95;67.03;101289.41;107484;1254;97835;-62
2024/03/02 05:15:15;;;;;;;;;;;;;;;5.99;66.67;101290.99;107542;1251;111975;-66
2024/03/02 05:17:43;;;;;;;;;;;;;;;5.99;66.36;101294.04;107616;1253;108934;-65
2024/03/02 05:20:12;;;;;;;;;;;;;;;5.97;66.42;101292.71;107595;1253;108527;-64
2024/03/02 05:22:41;;;;;;;;;;;;;;;5.95;66.28;101292.96;107608;1254;97941;-62
2024/03/02 05:25:12;;;;;;;;;;;;;;;5.95;66.21;101292.30;107617;1255;97950;-66
2024/03/02 05:27:40;;;;;;;;;;;;;;;5.93;66.20;101287.95;107659;1251;112261;-68
2024/03/02 05:30:09;;;;;;;;;;;;;;;5.93;66.27;101294.54;107625;1251;108441;-68
2024/03/02 05:32:37;;;;;;;;;;;;;;;5.94;66.26;101298.76;107617;1251;108550;-68
2024/03/02 05:35:07;;;;;;;;;;;;;;;5.95;66.19;101298.84;107548;1251;97766;-68
2024/03/02 05:37:35;;;;;;;;;;;;;;;5.98;66.28;101297.64;107594;1254;97784;-68
2024/03/02 05:40:05;;;;;;;;;;;;;;;5.99;66.18;101297.08;107642;1253;112023;-67
2024/03/02 05:42:34;;;;;;;;;;;;;;;6.01;66.06;101302.33;107647;1254;107247;-66
2024/03/02 05:45:02;;;;;;;;;;;;;;;6.01;66.28;101299.79;107558;1254;107930;-67
2024/03/02 05:47:31;;;;;;;;;;;;;;;6.02;66.15;101302.06;107626;1252;97867;-65
2024/03/02 05:49:59;;;;;;;;;;;;;;;6.03;66.01;101307.86;107633;1254;97821;-66
2024/03/02 05:52:27;;;;;;;;;;;;;;;6.05;66.13;101305.25;107558;1250;112278;-65
2024/03/02 05:54:56;;;;;;;;;;;;;;;6.06;65.99;101309.09;107623;1250;108336;-65
2024/03/02 06:00:11;;;;;;;;;;;;;;;6.02;65.80;101307.94;107599;1253;97834;-67
2024/03/02 06:02:40;;;;;;;;;;;;;;;6.00;65.90;101308.56;107656;1251;97707;-69
2024/03/02 06:05:10;;;;;;;;;;;;;;;6.00;66.06;101313.73;107650;1250;111454;-67
2024/03/02 06:07:38;;;;;;;;;;;;;;;6.03;66.04;101310.55;107569;1254;107801;-68
2024/03/02 06:10:08;;;;;;;;;;;;;;;6.08;66.20;101316.96;107575;1253;108163;-67
2024/03/02 06:12:41;;;;;;;;;;;;;;;6.14;66.06;101314.86;107597;1256;97727;-67
2024/03/02 06:15:10;;;;;;;;;;;;;;;6.16;66.12;101312.75;107638;1254;97873;-66
2024/03/02 06:17:39;;;;;;;;;;;;;;;6.21;65.97;101316.75;107621;1251;111010;-66
2024/03/02 06:20:08;;;;;;;;;;;;;;;6.23;65.68;101318.07;107648;1251;107116;-65
2024/03/02 06:22:37;;;;;;;;;;;;;;;6.23;65.61;101318.89;107535;1254;106632;-65
2024/03/02 06:25:05;;;;;;;;;;;;;;;6.22;65.52;101319.50;107562;1252;97870;-66
2024/03/02 06:27:35;;;;;;;;;;;;;;;6.21;65.47;101314.98;107582;1253;97888;-65
2024/03/02 06:30:04;;;;;;;;;;;;;;;6.19;65.42;101318.27;107622;1253;111597;-66
2024/03/02 06:32:32;;;;;;;;;;;;;;;6.16;65.49;101319.37;107569;1254;108713;-65
2024/03/02 06:35:01;;;;;;;;;;;;;;;6.10;65.49;101316.88;107614;1254;109137;-67
2024/03/02 06:37:29;;;;;;;;;;;;;;;6.04;65.40;101317.62;107627;1254;97916;-68
2024/03/02 06:39:57;;;;;;;;;;;;;;;6.08;65.72;101313.97;107637;1252;97839;-68
2024/03/02 06:42:26;;;;;;;;;;;;;;;6.18;65.65;101311.95;107628;1253;111461;-66
2024/03/02 06:44:55;;;;;;;;;;;;;;;6.28;65.52;101314.52;107623;1253;108201;-68
2024/03/02 06:47:24;;;;;;;;;;;;;;;6.35;64.97;101317.15;107561;1252;109252;-68
2024/03/02 06:49:53;;;;;;;;;;;;;;;6.39;64.88;101313.13;107614;1251;97822;-67
2024/03/02 06:52:22;;;;;;;;;;;;;;;6.46;64.84;101315.53;107591;1251;97950;-67
2024/03/02 06:54:52;;;;;;;;;;;;;;;6.53;64.62;101320.27;107660;1251;110650;-67
2024/03/02 06:57:20;;;;;;;;;;;;;;;6.61;64.61;101324.80;107563;1252;108276;-66
2024/03/02 06:59:51;;;;;;;;;;;;;;;6.63;64.19;101314.69;107650;1254;109580;-64
2024/03/02 07:02:20;;;;;;;;;;;;;;;6.63;64.14;101311.30;107627;1254;98036;-65
2024/03/02 07:04:48;;;;;;;;;;;;;;;6.65;64.10;101312.05;107628;1254;97857;-64
2024/03/02 07:07:17;;;;;;;;;;;;;;;6.69;64.15;101320.00;107618;1252;110979;-64
2024/03/02 07:09:47;;;;;;;;;;;;;;;6.74;64.08;101323.08;107618;1253;107791;-64
2024/03/02 07:12:15;;;;;;;;;;;;;;;6.77;63.90;101321.79;107600;1253;107266;-67
2024/03/02 07:17:31;;;;;;;;;;;;;;;6.89;64.07;101325.86;107605;1254;97950;-69
2024/03/02 07:19:59;;;;;;;;;;;;;;;7.00;64.06;101324.63;107634;1254;110687;-68
2024/03/02 07:22:28;;;;;;;;;;;;;;;7.16;64.06;101324.69;107607;1254;108159;-68
2024/03/02 07:24:56;;;;;;;;;;;;;;;7.27;63.46;101321.11;107570;1253;108343;-68
2024/03/02 07:27:24;;;;;;;;;;;;;;;7.34;63.30;101327.61;107583;1254;97841;-67
2024/03/02 07:29:52;;;;;;;;;;;;;;;7.41;63.20;101327.13;107612;1254;97932;-67
2024/03/02 07:32:21;;;;;;;;;;;;;;;7.49;63.18;101327.13;107623;1253;112221;-68
2024/03/02 07:34:50;;;;;;;;;;;;;;;7.57;62.88;101327.02;107617;1253;108838;-66
2024/03/02 07:37:20;;;;;;;;;;;;;;;7.61;62.75;101325.08;107641;1251;107055;-68
2024/03/02 07:39:48;;;;;;;;;;;;;;;7.66;62.41;101324.63;107559;1254;97828;-67
2024/03/02 07:42:17;;;;;;;;;;;;;;;7.68;62.45;101326.79;107614;1254;97854;-64
2024/03/02 07:44:45;;;;;;;;;;;;;;;7.69;62.12;101327.58;107598;1254;112416;-64
2024/03/02 07:47:14;;;;;;;;;;;;;;;7.72;62.25;101324.00;107638;1254;107951;-66
2024/03/02 07:49:44;;;;;;;;;;;;;;;7.77;61.76;101323.88;107579;1254;107645;-66
2024/03/02 07:52:12;;;;;;;;;;;;;;;7.81;61.54;101330.18;107572;1254;97872;-67
2024/03/02 07:54:41;;;;;;;;;;;;;;;7.84;61.38;101326.75;107613;1254;97714;-68
2024/03/02 07:57:10;;;;;;;;;;;;;;;7.91;61.61;101322.91;107576;1255;110282;-67
2024/03/02 07:59:38;;;;;;;;;;;;;;;7.98;61.70;101324.57;107635;1254;107973;-67
2024/03/02 08:02:06;;;;;;;;;;;;;;;8.06;60.92;101319.73;107519;1254;108286;-67
2024/03/02 08:04:36;;;;;;;;;;;;;;;8.09;60.55;101320.77;107567;1251;97838;-66
2024/03/02 08:07:06;;;;;;;;;;;;;;;8.11;60.70;101319.06;107639;1251;97832;-66
2024/03/02 08:09:34;;;;;;;;;;;;;;;8.12;60.35;101316.45;107602;1253;111875;-67
2024/03/02 08:12:03;;;;;;;;;;;;;;;8.15;60.28;101316.41;107602;1254;108460;-65
2024/03/02 08:14:31;;;;;;;;;;;;;;;8.19;60.32;101316.20;107637;1255;108206;-68
2024/03/02 08:17:01;;;;;;;;;;;;;;;8.24;60.25;101306.84;107619;1254;97838;-67
2024/03/02 08:19:29;;;;;;;;;;;;;;;8.31;59.80;101301.75;107583;1254;97870;-68
2024/03/02 08:21:59;;;;;;;;;;;;;;;8.34;60.02;101304.20;107651;1251;111720;-68
2024/03/02 08:24:28;;;;;;;;;;;;;;;8.40;59.85;101310.95;107669;1251;107517;-68
2024/03/02 08:26:57;;;;;;;;;;;;;;;8.46;59.85;101315.20;107579;1255;108455;-68
2024/03/02 08:29:25;;;;;;;;;;;;;;;8.51;59.60;101310.08;107601;1254;97854;-71
2024/03/02 08:31:54;;;;;;;;;;;;;;;8.54;58.34;101299.49;107675;1254;97905;-69
2024/03/02 08:34:22;;;;;;;;;;;;;;;8.53;58.34;101302.91;107606;1254;111314;-67
2024/03/02 08:36:51;;;;;;;;;;;;;;;8.51;58.55;101305.04;107602;1254;108274;-67
2024/03/02 08:39:20;;;;;;;;;;;;;;;8.53;58.80;101303.13;107594;1255;108038;-65
2024/03/02 08:41:49;;;;;;;;;;;;;;;8.51;58.42;101304.88;107615;1253;97825;-66
2024/03/02 08:44:17;;;;;;;;;;;;;;;8.45;58.40;101303.98;107656;1254;97777;-66
2024/03/02 08:46:46;;;;;;;;;;;;;;;8.44;58.49;101302.81;107070;1253;747660;-65
2024/03/02 08:49:14;;;;;;;;;;;;;;;8.41;58.07;101301.21;107600;1254;108081;-65
2024/03/02 08:51:43;;;;;;;;;;;;;;;8.32;58.18;101298.45;107656;1251;108293;-66
2024/03/02 08:54:11;;;;;;;;;;;;;;;8.28;58.10;101298.55;107565;1252;97849;-68
2024/03/02 08:56:39;;;;;;;;;;;;;;;8.24;58.13;101297.05;107622;1254;97816;-67
2024/03/02 08:59:07;;;;;;;;;;;;;;;8.26;58.13;101294.74;107555;1254;111971;-68
2024/03/02 09:01:41;;;;;;;;;;;;;;;8.30;57.65;101292.34;107602;1254;107299;-69
2024/03/02 09:04:09;;;;;;;;;;;;;;;8.31;57.77;101290.29;107602;1255;106958;-68
2024/03/02 09:06:38;;;;;;;;;;;;;;;8.34;57.75;101288.55;107605;1251;97850;-68
2024/03/02 09:09:06;;;;;;;;;;;;;;;8.36;58.04;101286.23;107615;1252;97909;-66
2024/03/02 09:11:35;;;;;;;;;;;;;;;8.43;58.23;101288.53;107670;1251;110930;-66
2024/03/02 09:14:05;;;;;;;;;;;;;;;8.50;57.85;101286.17;107597;1254;108694;-66
2024/03/02 09:16:33;;;;;;;;;;;;;;;8.49;57.51;101286.77;107563;1255;108483;-66
2024/03/02 09:19:01;;;;;;;;;;;;;;;8.45;57.25;101288.02;107620;1252;97836;-67
2024/03/02 09:21:30;;;;;;;;;;;;;;;8.42;56.82;101289.69;107617;1250;98473;-65
2024/03/02 09:23:58;;;;;;;;;;;;;;;8.41;57.11;101289.30;107593;1251;111737;-66
2024/03/02 09:26:27;;;;;;;;;;;;;;;8.39;56.77;101283.66;107618;1251;107738;-67
2024/03/02 09:28:55;;;;;;;;;;;;;;;8.42;57.03;101285.08;107589;1256;107844;-69
2024/03/02 09:31:23;;;;;;;;;;;;;;;8.45;56.78;101277.15;107648;1253;97822;-70
2024/03/02 09:33:52;;;;;;;;;;;;;;;8.49;56.69;101279.80;107596;1253;97931;-68
2024/03/02 09:36:22;;;;;;;;;;;;;;;8.53;56.47;101282.20;107572;1254;112082;-69
2024/03/02 09:38:50;;;;;;;;;;;;;;;8.56;56.59;101276.40;107686;1254;107092;-68
2024/03/02 09:41:19;;;;;;;;;;;;;;;8.62;56.48;101275.85;107622;1251;107887;-67
2024/03/02 09:43:48;;;;;;;;;;;;;;;8.67;56.14;101274.20;107533;1254;97980;-67
2024/03/02 09:46:16;;;;;;;;;;;;;;;8.72;56.35;101277.77;107611;1254;98364;-66
2024/03/02 09:48:45;;;;;;;;;;;;;;;8.76;55.93;101276.21;107623;1254;112187;-66
2024/03/02 09:51:14;;;;;;;;;;;;;;;8.76;55.74;101275.17;107551;1254;108275;-66
2024/03/02 09:53:42;;;;;;;;;;;;;;;8.71;55.48;101272.46;107582;1256;107043;-65
2024/03/02 09:56:11;;;;;;;;;;;;;;;8.68;55.52;101270.34;107556;1253;97838;-65
2024/03/02 09:58:40;;;;;;;;;;;;;;;8.69;55.56;101270.15;107613;1254;97847;-65
2024/03/02 10:01:09;;;;;;;;;;;;;;;8.74;55.74;101272.45;107594;1254;112729;-67
2024/03/02 10:03:39;;;;;;;;;;;;;;;8.79;55.64;101270.34;107642;1255;107621;-68
2024/03/02 10:06:20;;;;;;;;;;;;;;;8.82;55.78;101270.48;107571;1251;107461;-68
2024/03/02 10:08:49;;;;;;;;;;;;;;;8.88;55.90;101266.10;107589;1254;97843;-68
2024/03/02 10:11:32;;;;;;;;;;;;;;;8.93;55.75;101267.11;107647;1253;97809;-68
2024/03/02 10:14:11;;;;;;;;;;;;;;;8.98;55.66;101264.23;107639;1251;111828;-68
2024/03/02 10:16:39;;;;;;;;;;;;;;;9.04;55.58;101259.86;107655;1255;108440;-68
2024/03/02 10:19:21;;;;;;;;;;;;;;;9.10;55.52;101256.38;107580;1251;108288;-67
2024/03/02 10:21:50;;;;;;;;;;;;;;;9.16;55.48;101255.60;107526;1254;97890;-66
2024/03/02 10:24:20;;;;;;;;;;;;;;;9.19;55.24;101249.45;107554;1256;97924;-65
2024/03/02 10:26:49;;;;;;;;;;;;;;;9.22;55.27;101247.27;107624;1254;111310;-65
2024/03/02 10:29:18;;;;;;;;;;;;;;;9.24;54.97;101244.62;107568;1254;108604;-65
2024/03/02 10:31:46;;;;;;;;;;;;;;;9.24;54.64;101242.09;107562;1254;108543;-65
2024/03/02 10:34:16;;;;;;;;;;;;;;;9.26;54.84;101241.44;107666;1254;97842;-65
2024/03/02 10:36:47;;;;;;;;;;;;;;;9.29;54.87;101238.57;107585;1254;97848;-67
2024/03/02 10:39:15;;;;;;;;;;;;;;;9.34;55.10;101237.08;107536;1254;111199;-67
2024/03/02 10:41:44;;;;;;;;;;;;;;;9.37;54.87;101234.82;107536;1253;107531;-68
2024/03/02 10:44:13;;;;;;;;;;;;;;;9.44;54.86;101230.98;107513;1254;108511;-69
2024/03/02 10:46:43;;;;;;;;;;;;;;;9.50;54.75;101228.02;107520;1254;97823;-69
2024/03/02 10:49:12;;;;;;;;;;;;;;;9.57;54.70;101226.16;107594;1254;97895;-68
2024/03/02 10:51:40;;;;;;;;;;;;;;;9.62;54.23;101225.23;107650;1254;110677;-68
2024/03/02 10:54:08;;;;;;;;;;;;;;;9.66;54.13;101222.12;107607;1254;108785;-67
2024/03/02 10:56:37;;;;;;;;;;;;;;;9.71;54.35;101223.84;107587;1254;108563;-67
2024/03/02 10:59:11;;;;;;;;;;;;;;;9.77;54.06;101225.59;107598;1254;97851;-66
2024/03/02 11:01:42;;;;;;;;;;;;;;;9.79;53.30;101225.20;107515;1254;97713;-67
2024/03/02 11:04:12;;;;;;;;;;;;;;;9.78;52.88;101225.51;107520;1254;111637;-67
2024/03/02 11:06:44;;;;;;;;;;;;;;;9.79;52.97;101226.45;107458;1254;107627;-65
2024/03/02 11:09:18;;;;;;;;;;;;;;;9.80;52.57;101225.86;107551;1256;107571;-67
2024/03/02 11:11:50;;;;;;;;;;;;;;;9.79;53.02;101227.36;107531;1256;97827;-66
2024/03/02 11:14:21;;;;;;;;;;;;;;;9.82;53.18;101223.76;107494;1254;97858;-68
2024/03/02 11:16:51;;;;;;;;;;;;;;;9.82;52.98;101227.15;107566;1254;111823;-68
2024/03/02 11:19:19;;;;;;;;;;;;;;;9.81;52.93;101225.06;107527;1253;109222;-68
2024/03/02 11:21:48;;;;;;;;;;;;;;;9.81;53.17;101228.29;107476;1254;108366;-67
2024/03/02 11:24:23;;;;;;;;;;;;;;;9.87;53.42;101225.70;107507;1256;97968;-68
2024/03/02 11:26:52;;;;;;;;;;;;;;;9.91;53.42;101223.71;107555;1254;97726;-67
2024/03/02 11:29:35;;;;;;;;;;;;;;;9.95;53.28;101223.96;107496;1254;111910;-67
2024/03/02 11:32:05;;;;;;;;;;;;;;;9.95;53.33;101222.67;107538;1254;108372;-67
2024/03/02 11:34:34;;;;;;;;;;;;;;;9.98;53.37;101217.98;107597;1254;108249;-68
2024/03/02 11:37:03;;;;;;;;;;;;;;;9.99;53.15;101218.10;107548;1254;97915;-67
2024/03/02 11:39:32;;;;;;;;;;;;;;;9.95;52.99;101216.50;107632;1251;97826;-65
2024/03/02 11:42:00;;;;;;;;;;;;;;;9.92;52.88;101213.96;107516;1254;111468;-66
2024/03/02 11:44:29;;;;;;;;;;;;;;;9.91;53.03;101213.16;107592;1254;107765;-65
2024/03/02 11:47:00;;;;;;;;;;;;;;;9.93;53.12;101213.55;107644;1254;107347;-67
2024/03/02 11:49:42;;;;;;;;;;;;;;;9.98;53.27;101210.48;107606;1256;97921;-69
2024/03/02 11:52:11;;;;;;;;;;;;;;;10.02;53.17;101206.37;107613;1255;97816;-67
2024/03/02 11:54:51;;;;;;;;;;;;;;;10.08;52.94;101206.11;107602;1251;112195;-68
2024/03/02 11:57:22;;;;;;;;;;;;;;;10.08;52.79;101202.50;107561;1252;107933;-69
2024/03/02 11:59:51;;;;;;;;;;;;;;;10.11;52.89;101202.46;107505;1256;107742;-68
2024/03/02 12:02:20;;;;;;;;;;;;;;;10.17;52.96;101202.34;107564;1251;97914;-69
2024/03/02 12:04:49;;;;;;;;;;;;;;;10.20;52.71;101201.05;107625;1251;97752;-68
2024/03/02 12:07:19;;;;;;;;;;;;;;;10.23;52.54;101201.90;107589;1251;111784;-67
2024/03/02 12:09:48;;;;;;;;;;;;;;;10.27;52.41;101197.77;107635;1251;106729;-68
2024/03/02 12:12:20;;;;;;;;;;;;;;;10.31;52.49;101197.83;107557;1250;107720;-67
2024/03/02 12:14:53;;;;;;;;;;;;;;;10.35;52.31;101196.59;107577;1255;97828;-68
2024/03/02 12:17:21;;;;;;;;;;;;;;;10.37;52.14;101194.65;107615;1254;97853;-68
2024/03/02 12:19:50;;;;;;;;;;;;;;;10.43;52.31;101197.12;107626;1251;111679;-65
2024/03/02 12:22:18;;;;;;;;;;;;;;;10.47;51.58;101196.92;107620;1254;107580;-65
2024/03/02 12:24:47;;;;;;;;;;;;;;;10.47;51.50;101198.90;107609;1254;108296;-68
2024/03/02 12:27:15;;;;;;;;;;;;;;;10.49;51.42;101198.77;107571;1254;97834;-68
2024/03/02 12:29:43;;;;;;;;;;;;;;;10.50;51.03;101198.13;107558;1254;97931;-68
2024/03/02 12:32:14;;;;;;;;;;;;;;;10.48;50.82;101199.87;107606;1252;111621;-68
2024/03/02 12:34:42;;;;;;;;;;;;;;;10.47;50.83;101193.88;107610;1250;108324;-69
2024/03/02 12:37:12;;;;;;;;;;;;;;;10.46;50.67;101197.18;107570;1256;107844;-68
2024/03/02 12:39:44;;;;;;;;;;;;;;;10.45;50.84;101200.09;107578;1251;97866;-68
2024/03/02 12:42:12;;;;;;;;;;;;;;;10.46;50.94;101198.96;107630;1255;97835;-68
2024/03/02 12:44:40;;;;;;;;;;;;;;;10.46;50.66;101202.41;107574;1254;111651;-67
2024/03/02 12:47:08;;;;;;;;;;;;;;;10.45;50.14;101200.13;107623;1251;107893;-67
2024/03/02 12:49:37;;;;;;;;;;;;;;;10.42;50.27;101200.55;107580;1251;108289;-66
2024/03/02 12:52:05;;;;;;;;;;;;;;;10.41;50.23;101199.34;107556;1255;97912;-66